Time;durP1;ratioP1;P1;durP2;ratioP2;P2;SDS_P1;SDS_P2;PMS_P1;PMS_P2;Temp;Humidity;BMP_temperature;BMP_pressure;BME280_temperature;BME280_humidity;BME280_pressure;Samples;Min_cycle;Max_cycle;Signal;HPM_P1;HPM_P2
2021/11/22 00:00:17;;;;;;;13.98;10.63;;;;;;;6.11;80.02;99692.56;1087882;54;20053;-80
2021/11/22 00:01:20;;;;;;;15.90;11.10;;;;;;;6.09;80.25;99685.56;1087834;54;20038;-82
2021/11/22 00:02:27;;;;;;;18.55;12.82;;;;;;;6.08;80.27;99693.66;1088450;39;20663;-79
2021/11/22 00:03:29;;;;;;;17.38;11.27;;;;;;;6.08;80.25;99689.19;1087730;54;20042;-79
2021/11/22 00:04:34;;;;;;;15.82;11.20;;;;;;;6.04;80.37;99685.13;1087878;54;20037;-79
2021/11/22 00:05:36;;;;;;;16.67;11.88;;;;;;;6.02;80.49;99691.50;1087536;54;20061;-81
2021/11/22 00:06:40;;;;;;;17.25;11.68;;;;;;;6.00;80.31;99691.63;1088201;39;20590;-78
2021/11/22 00:07:42;;;;;;;16.95;12.05;;;;;;;5.98;80.52;99690.88;1087693;54;20054;-79
2021/11/22 00:08:49;;;;;;;17.85;11.90;;;;;;;6.01;80.87;99689.81;1087395;54;20034;-78
2021/11/22 00:09:51;;;;;;;15.77;11.35;;;;;;;6.01;80.71;99695.13;1087454;54;20087;-80
2021/11/22 00:10:55;;;;;;;14.98;10.40;;;;;;;5.99;80.81;99691.72;1087292;54;20034;-79
2021/11/22 00:11:57;;;;;;;16.83;12.02;;;;;;;5.95;81.13;99685.84;1087461;54;20973;-80
2021/11/22 00:13:01;;;;;;;17.45;11.90;;;;;;;6.00;81.13;99690.81;1087426;54;20081;-79
2021/11/22 00:14:03;;;;;;;19.30;12.20;;;;;;;5.94;80.90;99684.97;1087448;54;20038;-80
2021/11/22 00:15:09;;;;;;;16.92;11.88;;;;;;;5.94;81.34;99692.94;1087444;54;20027;-78
2021/11/22 00:16:11;;;;;;;16.25;11.48;;;;;;;5.97;81.05;99683.88;1087301;54;20038;-78
2021/11/22 00:17:17;;;;;;;17.25;11.30;;;;;;;5.89;81.30;99688.97;1087425;54;20043;-78
2021/11/22 00:18:19;;;;;;;16.70;11.27;;;;;;;5.95;81.33;99691.13;1087434;54;20706;-78
2021/11/22 00:19:27;;;;;;;17.58;12.02;;;;;;;5.90;81.48;99693.31;1087331;54;20035;-79
2021/11/22 00:20:33;;;;;;;19.35;12.57;;;;;;;5.87;81.70;99686.44;1087354;54;20407;-78
2021/11/22 00:21:37;;;;;;;18.10;11.80;;;;;;;5.84;81.69;99694.63;1087365;54;20042;-79
2021/11/22 00:22:39;;;;;;;18.08;12.10;;;;;;;5.83;81.96;99695.59;1087338;54;20046;-78
2021/11/22 00:23:44;;;;;;;21.33;13.95;;;;;;;5.82;81.82;99696.56;1087391;54;20090;-79
2021/11/22 00:24:48;;;;;;;21.60;12.48;;;;;;;5.83;81.94;99694.78;1087445;54;20030;-79
2021/11/22 00:25:52;;;;;;;18.75;12.13;;;;;;;5.81;81.91;99694.03;1087361;54;20035;-78
2021/11/22 00:26:56;;;;;;;16.17;11.52;;;;;;;5.82;82.04;99693.09;1087467;54;20038;-81
2021/11/22 00:27:58;;;;;;;17.00;11.75;;;;;;;5.82;81.80;99698.38;1087257;54;20065;-78
2021/11/22 00:29:02;;;;;;;17.08;12.70;;;;;;;5.80;81.97;99702.97;1087596;39;20349;-79
2021/11/22 00:30:05;;;;;;;15.40;10.20;;;;;;;5.82;81.75;99701.88;1087380;54;20058;-78
2021/11/22 00:31:10;;;;;;;18.35;10.68;;;;;;;5.83;81.88;99697.41;1087614;39;20999;-79
2021/11/22 00:32:11;;;;;;;16.20;11.45;;;;;;;5.83;82.30;99702.72;1089248;39;20631;-78
2021/11/22 00:33:16;;;;;;;15.27;10.68;;;;;;;5.84;82.28;99696.47;1087291;54;20094;-80
2021/11/22 00:34:17;;;;;;;18.17;11.75;;;;;;;5.82;81.89;99704.53;1087411;54;20065;-79
2021/11/22 00:35:21;;;;;;;18.23;12.43;;;;;;;5.78;82.31;99701.28;1087580;54;20082;-80
2021/11/22 00:36:29;;;;;;;16.65;11.35;;;;;;;5.83;82.63;99700.06;1087707;54;20741;-80
2021/11/22 00:37:36;;;;;;;18.00;12.20;;;;;;;5.86;82.08;99700.66;1087763;54;20038;-80
2021/11/22 00:38:40;;;;;;;14.63;10.57;;;;;;;5.87;82.18;99698.84;1090709;39;20693;-79
2021/11/22 00:39:42;;;;;;;16.48;11.50;;;;;;;5.89;82.16;99707.53;1087719;54;20034;-80
2021/11/22 00:40:50;;;;;;;16.25;10.77;;;;;;;5.88;82.19;99712.00;1087722;54;20039;-81
2021/11/22 00:41:52;;;;;;;13.65;10.25;;;;;;;5.87;81.94;99710.31;1087877;54;20041;-80
2021/11/22 00:42:56;;;;;;;17.45;11.23;;;;;;;5.84;82.42;99709.72;1087763;54;20042;-80
2021/11/22 00:43:58;;;;;;;16.48;10.63;;;;;;;5.86;82.29;99710.41;1087670;54;20734;-79
2021/11/22 00:45:04;;;;;;;17.30;12.27;;;;;;;5.87;82.39;99714.75;1087735;54;20065;-79
2021/11/22 00:46:07;;;;;;;18.85;12.25;;;;;;;5.84;82.56;99712.38;1087678;54;20015;-80
2021/11/22 00:47:12;;;;;;;18.02;11.55;;;;;;;5.82;82.76;99716.97;1087738;54;20065;-78
2021/11/22 00:48:21;;;;;;;16.05;11.13;;;;;;;5.85;82.64;99724.69;1087781;54;20023;-79
2021/11/22 00:49:23;;;;;;;16.40;11.40;;;;;;;5.85;82.78;99716.72;1087734;54;20034;-80
2021/11/22 00:50:27;;;;;;;18.45;12.65;;;;;;;5.85;82.44;99719.38;1087600;54;20037;-80
2021/11/22 00:51:29;;;;;;;17.95;12.98;;;;;;;5.80;82.86;99719.75;1087648;54;20090;-80
2021/11/22 00:52:33;;;;;;;16.48;11.85;;;;;;;5.84;82.69;99717.69;1087680;54;20038;-80
2021/11/22 00:53:38;;;;;;;14.50;10.50;;;;;;;5.85;82.65;99724.69;1087748;54;20038;-79
2021/11/22 00:54:39;;;;;;;14.70;10.43;;;;;;;5.88;82.65;99721.75;1087706;54;20070;-80
2021/11/22 00:55:47;;;;;;;15.10;10.73;;;;;;;5.90;82.44;99720.66;1087677;54;20030;-79
2021/11/22 00:56:49;;;;;;;17.23;11.65;;;;;;;5.81;82.76;99723.22;1087567;54;20030;-79
2021/11/22 00:57:53;;;;;;;16.38;11.68;;;;;;;5.84;82.78;99723.81;1087652;54;20034;-79
2021/11/22 00:58:57;;;;;;;15.52;11.02;;;;;;;5.81;82.71;99721.41;1087654;54;20781;-79
2021/11/22 00:59:59;;;;;;;15.88;11.65;;;;;;;5.83;82.75;99718.66;1087665;54;20326;-81
2021/11/22 01:01:04;;;;;;;14.75;11.05;;;;;;;5.85;82.67;99722.84;1087634;54;20103;-81
2021/11/22 01:02:05;;;;;;;14.48;10.50;;;;;;;5.86;82.64;99723.69;1087444;54;20058;-80
2021/11/22 01:03:10;;;;;;;17.40;11.70;;;;;;;5.85;82.56;99733.47;1087459;54;20053;-80
2021/11/22 01:04:12;;;;;;;15.23;10.88;;;;;;;5.83;82.62;99726.59;1088398;39;20294;-80
2021/11/22 01:05:17;;;;;;;12.73;9.38;;;;;;;5.85;82.62;99730.81;1087447;54;20030;-79
2021/11/22 01:06:18;;;;;;;15.15;9.80;;;;;;;5.88;82.67;99738.53;1087129;54;20031;-79
2021/11/22 01:07:23;;;;;;;14.18;9.98;;;;;;;5.88;82.54;99732.38;1087563;54;20030;-81
2021/11/22 01:08:28;;;;;;;14.95;10.25;;;;;;;5.90;82.77;99741.06;1087442;54;20030;-79
2021/11/22 01:09:30;;;;;;;13.70;9.60;;;;;;;5.93;82.75;99735.53;1087541;54;20037;-78
2021/11/22 01:10:35;;;;;;;14.75;10.70;;;;;;;5.91;82.55;99734.78;1090929;39;20742;-79
2021/11/22 01:11:40;;;;;;;14.27;10.05;;;;;;;5.92;82.60;99739.13;1087564;54;20042;-80
2021/11/22 01:12:46;;;;;;;13.10;9.38;;;;;;;5.93;82.46;99746.13;1087643;54;20061;-80
2021/11/22 01:13:47;;;;;;;13.65;9.27;;;;;;;5.95;82.58;99744.22;1087544;54;20042;-79
2021/11/22 01:14:52;;;;;;;13.23;9.57;;;;;;;5.96;82.43;99740.56;1094574;31;20828;-79
2021/11/22 01:15:56;;;;;;;15.05;10.30;;;;;;;5.95;82.31;99741.56;1090644;39;21864;-80
2021/11/22 01:16:57;;;;;;;12.85;9.90;;;;;;;5.94;82.11;99747.81;1087638;54;20034;-80
2021/11/22 01:18:03;;;;;;;13.23;9.63;;;;;;;5.96;82.32;99740.56;1087713;54;20042;-79
2021/11/22 01:19:06;;;;;;;13.32;9.80;;;;;;;5.99;82.26;99740.34;1087581;54;20077;-81
2021/11/22 01:20:14;;;;;;;14.13;10.30;;;;;;;5.96;82.67;99745.03;1087524;54;20034;-79
2021/11/22 01:21:15;;;;;;;13.48;9.65;;;;;;;5.98;82.71;99743.94;1087345;54;20831;-79
2021/11/22 01:22:20;;;;;;;14.55;9.52;;;;;;;5.98;82.50;99738.63;1087382;54;20034;-78
2021/11/22 01:23:21;;;;;;;14.02;9.73;;;;;;;5.99;82.47;99745.66;1087401;54;20038;-80
2021/11/22 01:24:26;;;;;;;14.07;9.35;;;;;;;5.97;82.64;99742.25;1087446;54;20034;-80
2021/11/22 01:25:27;;;;;;;13.63;10.20;;;;;;;5.95;82.47;99741.56;1087438;54;20061;-79
2021/11/22 01:26:31;;;;;;;13.35;10.05;;;;;;;5.93;82.53;99740.81;1087371;54;20036;-79
2021/11/22 01:27:36;;;;;;;14.30;10.20;;;;;;;5.88;83.09;99743.84;1087433;54;20077;-79
2021/11/22 01:28:40;;;;;;;14.50;10.63;;;;;;;5.91;82.65;99748.06;1087433;54;20054;-78
2021/11/22 01:29:42;;;;;;;13.43;9.98;;;;;;;5.93;82.53;99749.63;1087482;54;20446;-80
2021/11/22 01:30:46;;;;;;;13.60;9.68;;;;;;;5.95;82.87;99752.16;1087432;54;20034;-80
2021/11/22 01:31:48;;;;;;;13.57;9.50;;;;;;;5.93;82.55;99752.28;1087361;54;20061;-80
2021/11/22 01:32:52;;;;;;;12.82;9.73;;;;;;;5.96;82.63;99751.19;1087428;54;20037;-79
2021/11/22 01:33:54;;;;;;;12.65;9.32;;;;;;;5.99;82.69;99758.94;1087418;54;20063;-79
2021/11/22 01:34:58;;;;;;;11.90;9.05;;;;;;;6.01;82.78;99753.50;1087475;54;20098;-79
2021/11/22 01:36:00;;;;;;;11.10;8.23;;;;;;;6.04;82.41;99764.72;1087402;54;20064;-79
2021/11/22 01:37:05;;;;;;;12.13;8.38;;;;;;;6.07;82.53;99767.13;1087372;54;20073;-79
2021/11/22 01:38:07;;;;;;;12.90;8.43;;;;;;;6.10;82.59;99760.72;1087362;54;20061;-80
2021/11/22 01:39:11;;;;;;;11.32;8.13;;;;;;;6.13;82.54;99757.81;1087380;54;20031;-80
2021/11/22 01:40:15;;;;;;;11.95;8.27;;;;;;;6.15;82.47;99765.66;1087405;54;20057;-80
2021/11/22 01:41:20;;;;;;;12.20;8.43;;;;;;;6.18;82.32;99755.66;1087456;54;20336;-78
2021/11/22 01:42:21;;;;;;;9.55;6.90;;;;;;;6.21;82.33;99762.53;1087240;54;20060;-80
2021/11/22 01:43:28;;;;;;;9.95;7.35;;;;;;;6.23;82.23;99763.25;1087348;54;20030;-79
2021/11/22 01:44:30;;;;;;;11.25;8.38;;;;;;;6.22;82.23;99759.75;1087242;54;20034;-79
2021/11/22 01:45:37;;;;;;;12.32;8.30;;;;;;;6.20;82.04;99752.88;1087391;54;20053;-79
2021/11/22 01:46:38;;;;;;;11.93;8.32;;;;;;;6.22;81.88;99766.88;1087410;54;20034;-79
2021/11/22 01:47:43;;;;;;;12.90;9.05;;;;;;;6.18;82.10;99760.13;1087344;54;20034;-79
2021/11/22 01:48:45;;;;;;;11.18;8.30;;;;;;;6.19;82.13;99757.31;1087191;54;20046;-79
2021/11/22 01:49:49;;;;;;;11.43;8.30;;;;;;;6.18;81.93;99762.75;1091753;39;21120;-79
2021/11/22 01:50:53;;;;;;;11.05;8.48;;;;;;;6.18;82.14;99768.06;1087384;54;20058;-80
2021/11/22 01:51:58;;;;;;;11.38;8.13;;;;;;;6.16;82.21;99762.03;1087279;54;20030;-79
2021/11/22 01:52:59;;;;;;;10.13;7.40;;;;;;;6.17;82.15;99758.41;1087300;54;20042;-80
2021/11/22 01:54:03;;;;;;;11.65;8.30;;;;;;;6.18;81.99;99760.97;1087368;54;20039;-79
2021/11/22 01:55:06;;;;;;;10.40;7.75;;;;;;;6.15;82.11;99755.91;1087252;54;20042;-79
2021/11/22 01:56:10;;;;;;;11.60;8.40;;;;;;;6.16;82.23;99756.72;1087276;54;20773;-78
2021/11/22 01:57:14;;;;;;;11.38;8.00;;;;;;;6.17;82.08;99755.78;1087192;54;20061;-78
2021/11/22 01:58:16;;;;;;;10.90;8.30;;;;;;;6.16;82.26;99756.72;1087244;54;20038;-79
2021/11/22 01:59:23;;;;;;;11.60;8.25;;;;;;;6.17;82.18;99758.41;1087216;54;20038;-79
2021/11/22 02:00:28;;;;;;;10.02;7.97;;;;;;;6.19;82.31;99759.16;1087157;54;20046;-79
2021/11/22 02:01:33;;;;;;;11.27;8.05;;;;;;;6.19;82.02;99759.97;1087321;47;20749;-79
2021/11/22 02:02:34;;;;;;;10.10;7.30;;;;;;;6.19;82.16;99756.50;1087608;47;20074;-78
2021/11/22 02:03:38;;;;;;;11.00;8.07;;;;;;;6.18;82.21;99765.41;1087451;54;20041;-80
2021/11/22 02:04:40;;;;;;;11.68;8.70;;;;;;;6.20;82.24;99760.84;1087544;54;20065;-78
2021/11/22 02:05:45;;;;;;;12.05;8.13;;;;;;;6.16;81.96;99752.28;1087584;54;20031;-79
2021/11/22 02:06:49;;;;;;;10.98;7.97;;;;;;;6.13;82.47;99755.19;1087205;54;20825;-80
2021/11/22 02:07:54;;;;;;;11.73;7.85;;;;;;;6.16;82.27;99754.06;1088073;39;20631;-79
2021/11/22 02:08:55;;;;;;;10.05;7.38;;;;;;;6.16;82.05;99754.06;1087528;54;20062;-80
2021/11/22 02:09:59;;;;;;;10.48;7.20;;;;;;;6.15;82.20;99760.34;1087600;54;20030;-79
2021/11/22 02:11:03;;;;;;;9.95;7.47;;;;;;;6.16;82.20;99748.78;1087452;54;20034;-80
2021/11/22 02:12:08;;;;;;;10.35;7.43;;;;;;;6.12;82.38;99750.81;1087388;54;20138;-80
2021/11/22 02:13:10;;;;;;;8.75;6.20;;;;;;;6.15;82.32;99755.91;1087662;54;20114;-80
2021/11/22 02:14:14;;;;;;;9.77;6.97;;;;;;;6.17;82.14;99763.72;1087545;54;20034;-80
2021/11/22 02:15:19;;;;;;;9.48;7.10;;;;;;;6.14;82.30;99759.53;1087516;54;20414;-80
2021/11/22 02:16:23;;;;;;;10.40;7.88;;;;;;;6.15;82.04;99763.88;1087558;54;20037;-80
2021/11/22 02:17:25;;;;;;;10.13;7.45;;;;;;;6.16;82.15;99767.34;1087437;54;20069;-79
2021/11/22 02:18:29;;;;;;;10.93;8.15;;;;;;;6.14;82.40;99769.31;1089155;31;20750;-79
2021/11/22 02:19:37;;;;;;;8.63;6.63;;;;;;;6.13;82.40;99768.44;1087384;54;20026;-78
2021/11/22 02:20:42;;;;;;;9.95;7.20;;;;;;;6.16;82.42;99768.22;1087785;39;20734;-78
2021/11/22 02:21:46;;;;;;;10.25;7.15;;;;;;;6.17;82.22;99774.34;1087451;54;20054;-79
2021/11/22 02:22:50;;;;;;;11.25;7.65;;;;;;;6.18;82.34;99770.72;1087417;54;20113;-79
2021/11/22 02:23:52;;;;;;;10.50;7.15;;;;;;;6.18;82.43;99768.06;1087398;54;20706;-80
2021/11/22 02:24:56;;;;;;;9.90;7.45;;;;;;;6.16;82.39;99767.34;1087534;54;20037;-80
2021/11/22 02:25:58;;;;;;;11.15;7.60;;;;;;;6.18;82.29;99770.72;1091267;39;21396;-79
2021/11/22 02:27:02;;;;;;;10.38;8.07;;;;;;;6.16;82.30;99773.53;1088477;39;20194;-81
2021/11/22 02:28:04;;;;;;;11.30;8.48;;;;;;;6.13;82.48;99778.22;1090067;46;20746;-79
2021/11/22 02:29:08;;;;;;;10.43;7.57;;;;;;;6.13;82.21;99773.75;1087704;54;20030;-79
2021/11/22 02:30:12;;;;;;;13.27;8.50;;;;;;;6.14;82.28;99778.09;1087865;54;20061;-80
2021/11/22 02:31:16;;;;;;;11.57;8.70;;;;;;;6.15;82.60;99779.78;1087677;54;20030;-79
2021/11/22 02:32:19;;;;;;;11.77;8.63;;;;;;;6.12;82.54;99785.34;1087648;54;20046;-80
2021/11/22 02:33:27;;;;;;;10.23;7.70;;;;;;;6.13;82.48;99779.06;1087827;54;20038;-78
2021/11/22 02:34:28;;;;;;;11.10;8.32;;;;;;;6.07;82.63;99774.25;1087721;54;20041;-79
2021/11/22 02:35:37;;;;;;;11.23;8.75;;;;;;;6.08;82.92;99783.91;1087786;54;20035;-79
2021/11/22 02:36:38;;;;;;;11.25;7.85;;;;;;;6.11;82.65;99782.81;1087712;54;21052;-79
2021/11/22 02:37:43;;;;;;;11.05;8.05;;;;;;;6.15;82.84;99782.44;1087876;39;20681;-81
2021/11/22 02:38:44;;;;;;;10.52;7.57;;;;;;;6.15;82.61;99782.44;1087667;54;20038;-78
2021/11/22 02:39:48;;;;;;;11.77;8.52;;;;;;;6.18;82.60;99787.53;1087788;54;20038;-79
